createdAt,value
2019-01-03T00:01:43.559Z,102860.98
2019-01-03T00:04:44.603Z,102866.91
2019-01-03T00:07:38.990Z,102863.69
2019-01-03T00:10:43.037Z,102865.73
2019-01-03T00:13:44.054Z,102866.15
2019-01-03T00:16:45.114Z,102864.32
2019-01-03T00:19:46.126Z,102817.08
2019-01-03T00:22:27.582Z,102870.76
2019-01-03T00:25:28.679Z,102879.31
2019-01-03T00:28:35.750Z,102832.25
2019-01-03T00:31:12.795Z,102885.08
2019-01-03T00:33:53.985Z,102845.03
2019-01-03T00:36:35.137Z,102849.47
2019-01-03T00:39:16.465Z,102889.03
2019-01-03T00:42:17.506Z,102893.29
2019-01-03T00:45:18.572Z,102895.83
2019-01-03T00:48:19.589Z,102893.08
2019-01-03T00:51:00.767Z,102853.41
2019-01-03T00:53:41.923Z,102846.47
2019-01-03T00:56:23.139Z,102900.84
2019-01-03T01:01:47.091Z,102863.05
2019-01-03T01:04:28.284Z,102865.61
2019-01-03T01:12:40.948Z,102922.34
2019-01-03T01:18:32.264Z,102877.33
2019-01-03T01:21:13.404Z,102884.95
2019-01-03T01:23:54.795Z,102881.42
2019-01-03T01:37:46.067Z,102929.13
2019-01-03T01:43:16.244Z,102879.31
2019-01-03T01:46:17.280Z,102878.40
2019-01-03T01:49:18.330Z,102866.98
2019-01-03T01:51:59.502Z,102909.69
2019-01-03T01:57:43.445Z,102919.42
2019-01-03T02:03:28.203Z,102865.05
2019-01-03T02:06:09.358Z,102860.03
2019-01-03T02:09:04.270Z,102909.23
2019-01-03T02:11:45.459Z,102909.89
2019-01-03T02:14:26.643Z,102854.94
2019-01-03T02:19:50.523Z,102908.53
2019-01-03T02:22:31.731Z,102905.12
2019-01-03T02:25:32.797Z,102871.59
2019-01-03T02:28:33.823Z,102908.88
2019-01-03T02:31:14.999Z,102845.09
2019-01-03T02:33:56.229Z,102911.48
2019-01-03T02:36:37.410Z,102855.70
2019-01-03T02:39:38.436Z,102902.05
2019-01-03T02:42:19.607Z,102853.63
2019-01-03T02:45:00.753Z,102892.42
2019-01-03T02:48:01.864Z,102903.88
2019-01-03T02:50:43.055Z,102901.59
2019-01-03T02:53:24.258Z,102904.14
2019-01-03T02:56:25.268Z,102863.34
2019-01-03T02:59:06.447Z,102909.09
2019-01-03T03:02:07.482Z,102865.77
2019-01-03T03:05:08.533Z,102915.23
2019-01-03T03:10:32.779Z,102911.31
2019-01-03T03:19:15.420Z,102911.69
2019-01-03T03:21:56.710Z,102856.80
2019-01-03T03:27:07.218Z,102855.23
2019-01-03T03:30:08.252Z,102900.77
2019-01-03T03:32:49.449Z,102850.09
2019-01-03T03:35:30.605Z,102840.94
2019-01-03T03:38:11.817Z,102843.95
2019-01-03T03:40:53.055Z,102845.02
2019-01-03T03:43:34.400Z,102827.86
2019-01-03T03:46:35.586Z,102878.86
2019-01-03T03:49:16.769Z,102825.55
2019-01-03T03:51:57.926Z,102877.02
2019-01-03T03:54:58.986Z,102879.80
2019-01-03T03:57:40.145Z,102878.03
2019-01-03T04:00:21.818Z,102882.22
2019-01-03T04:03:02.981Z,102882.59
2019-01-03T04:05:58.171Z,102883.98
2019-01-03T04:08:39.371Z,102827.95
2019-01-03T04:11:40.417Z,102878.25
2019-01-03T04:17:30.713Z,102832.34
2019-01-03T04:20:31.722Z,102828.44
2019-01-03T04:23:12.932Z,102820.81
2019-01-03T04:26:14.240Z,102824.30
2019-01-03T04:28:55.402Z,102821.38
2019-01-03T04:31:56.461Z,102863.09
2019-01-03T04:40:09.658Z,102796.84
2019-01-03T04:42:51.144Z,102796.05
2019-01-03T04:45:52.171Z,102801.58
2019-01-03T04:48:33.343Z,102839.44
2019-01-03T04:51:14.464Z,102837.13
2019-01-03T04:53:55.648Z,102782.11
2019-01-03T04:59:46.317Z,102831.74
2019-01-03T05:05:16.454Z,102784.22
2019-01-03T05:07:57.741Z,102824.06
2019-01-03T05:10:58.901Z,102798.64
2019-01-03T05:13:59.935Z,102779.56
2019-01-03T05:22:39.263Z,102835.14
2019-01-03T05:25:20.396Z,102793.83
2019-01-03T05:28:01.545Z,102800.48
2019-01-03T05:30:42.769Z,102846.41
2019-01-03T05:33:23.973Z,102803.84
2019-01-03T05:36:24.996Z,102800.19
2019-01-03T05:39:06.156Z,102849.86
2019-01-03T05:41:47.280Z,102797.02
2019-01-03T05:47:17.501Z,102857.73
2019-01-03T05:50:18.537Z,102811.94
2019-01-03T05:52:59.708Z,102857.86
2019-01-03T05:58:43.731Z,102807.98
2019-01-03T06:01:24.892Z,102809.58
2019-01-03T06:04:04.368Z,102844.70
2019-01-03T06:06:45.499Z,102801.73
2019-01-03T06:17:54.821Z,102855.36
2019-01-03T06:23:25.359Z,102859.67
2019-01-03T06:26:26.398Z,102849.80
2019-01-03T06:29:27.440Z,102858.39
2019-01-03T06:32:08.576Z,102805.84
2019-01-03T06:34:29.870Z,102848.18
2019-01-03T06:37:10.997Z,102797.77
2019-01-03T06:39:52.167Z,102803.77
2019-01-03T06:42:33.417Z,102807.89
2019-01-03T06:48:23.461Z,102868.95
2019-01-03T06:51:04.593Z,102814.84
2019-01-03T06:56:28.486Z,102863.41
2019-01-03T07:01:51.085Z,102829.34
2019-01-03T07:04:52.135Z,102874.89
2019-01-03T07:07:53.221Z,102826.80
2019-01-03T07:10:34.512Z,102874.90
2019-01-03T07:13:15.667Z,102838.08
2019-01-03T07:15:56.903Z,102825.97
2019-01-03T07:18:38.095Z,102879.79
2019-01-03T07:21:19.475Z,102835.22
2019-01-03T07:24:00.662Z,102839.13
2019-01-03T07:26:41.836Z,102888.47
2019-01-03T07:29:23.020Z,102895.86
2019-01-03T07:35:06.799Z,102840.56
2019-01-03T07:40:50.584Z,102910.97
2019-01-03T07:43:31.744Z,102852.58
2019-01-03T07:46:12.942Z,102863.18
2019-01-03T07:48:54.086Z,102860.84
2019-01-03T07:51:35.261Z,102912.39
2019-01-03T07:56:59.199Z,102927.66
2019-01-03T07:59:40.402Z,102923.36
2019-01-03T08:02:21.571Z,102882.47
2019-01-03T08:05:02.976Z,102873.13
2019-01-03T08:10:52.988Z,102926.34
2019-01-03T08:13:54.041Z,102939.30
2019-01-03T08:16:55.123Z,102887.25
2019-01-03T08:19:56.153Z,102891.38
2019-01-03T08:22:37.346Z,102934.02
2019-01-03T08:24:58.638Z,102925.63
2019-01-03T08:27:40.095Z,102890.58
2019-01-03T08:30:21.305Z,102933.31
2019-01-03T08:33:02.493Z,102937.50
2019-01-03T08:35:43.610Z,102891.81
2019-01-03T08:38:06.805Z,102891.19
2019-01-03T08:40:49.876Z,102930.81
2019-01-03T08:46:43.616Z,102899.76
2019-01-03T08:55:17.007Z,102911.19
2019-01-03T09:00:40.914Z,102898.91
2019-01-03T09:03:15.351Z,102894.15
2019-01-03T09:06:19.536Z,102936.59
2019-01-03T09:09:20.572Z,102893.05
2019-01-03T09:12:01.775Z,102891.77
2019-01-03T09:14:42.881Z,102889.17
2019-01-03T09:19:53.593Z,102938.33
2019-01-03T09:25:57.769Z,102895.00
2019-01-03T09:28:58.809Z,102896.38
2019-01-03T09:31:40.033Z,102937.83
2019-01-03T09:34:21.208Z,102949.33
2019-01-03T09:39:51.446Z,102950.03
2019-01-03T09:42:26.018Z,102900.19
2019-01-03T09:44:47.297Z,102940.82
2019-01-03T09:47:08.707Z,102941.22
2019-01-03T09:49:30.000Z,102938.06
2019-01-03T09:51:51.318Z,102889.17
2019-01-03T09:54:12.583Z,102894.11
2019-01-03T09:56:33.929Z,102918.91
2019-01-03T09:58:55.281Z,102920.11
2019-01-03T10:01:16.574Z,102918.44
2019-01-03T10:03:57.775Z,102885.11
2019-01-03T10:06:32.748Z,102874.83
2019-01-03T10:09:13.968Z,102896.41
2019-01-03T10:11:35.276Z,102875.58
2019-01-03T10:13:56.557Z,102915.42
2019-01-03T10:16:18.068Z,102911.29
2019-01-03T10:18:39.346Z,102862.20
2019-01-03T10:21:00.629Z,102913.09
2019-01-03T10:23:22.068Z,102914.89
2019-01-03T10:25:43.408Z,102872.50
2019-01-03T10:27:44.818Z,102911.63
2019-01-03T10:30:06.335Z,102863.34
2019-01-03T10:32:27.617Z,102876.97
2019-01-03T10:34:29.026Z,102920.44
2019-01-03T10:36:50.313Z,102876.30
2019-01-03T10:39:11.611Z,102877.95
2019-01-03T10:41:32.901Z,102916.42
2019-01-03T10:43:54.232Z,102926.48
2019-01-03T10:46:09.068Z,102926.67
2019-01-03T10:48:30.397Z,102878.37
2019-01-03T10:50:31.787Z,102918.08
2019-01-03T10:52:53.099Z,102880.10
2019-01-03T10:55:14.438Z,102878.00
2019-01-03T10:57:35.707Z,102912.80
2019-01-03T10:59:56.999Z,102917.63
2019-01-03T11:02:18.332Z,102918.16
2019-01-03T11:04:39.654Z,102919.85
2019-01-03T11:07:00.937Z,102915.91
2019-01-03T11:09:22.506Z,102915.56
2019-01-03T11:11:43.787Z,102921.30
2019-01-03T11:14:05.091Z,102918.19
2019-01-03T11:16:26.417Z,102920.14
2019-01-03T11:19:07.566Z,102916.66
2019-01-03T11:21:09.015Z,102908.59
2019-01-03T11:23:30.298Z,102877.24
2019-01-03T11:25:51.634Z,102916.98
2019-01-03T11:28:12.951Z,102879.31
2019-01-03T11:30:41.803Z,102915.59
2019-01-03T11:33:03.080Z,102916.77
2019-01-03T11:35:44.268Z,102875.07
2019-01-03T11:37:45.722Z,102922.62
2019-01-03T11:40:06.994Z,102881.75
2019-01-03T11:42:28.296Z,102915.97
2019-01-03T11:44:49.576Z,102914.27
2019-01-03T11:47:10.892Z,102910.75
2019-01-03T11:49:32.185Z,102911.53
2019-01-03T11:51:53.567Z,102871.26
2019-01-03T11:54:16.788Z,102905.05
2019-01-03T11:56:38.102Z,102905.09
2019-01-03T11:58:59.396Z,102873.15
2019-01-03T12:01:20.734Z,102903.31
2019-01-03T12:03:35.400Z,102852.56
2019-01-03T12:05:56.709Z,102871.84
2019-01-03T12:08:18.023Z,102904.81
2019-01-03T12:10:39.289Z,102875.11
2019-01-03T12:13:00.657Z,102910.90
2019-01-03T12:15:43.931Z,102916.41
2019-01-03T12:18:05.260Z,102870.84
2019-01-03T12:20:26.529Z,102915.70
2019-01-03T12:22:47.800Z,102914.48
2019-01-03T12:25:09.114Z,102911.55
2019-01-03T12:27:30.408Z,102916.31
2019-01-03T12:29:51.735Z,102917.91
2019-01-03T12:32:13.047Z,102916.92
2019-01-03T12:34:34.344Z,102919.91
2019-01-03T12:36:55.681Z,102919.75
2019-01-03T12:39:16.985Z,102913.23
2019-01-03T12:41:38.301Z,102907.73
2019-01-03T12:43:59.571Z,102913.32
2019-01-03T12:46:21.144Z,102866.65
2019-01-03T12:49:02.320Z,102875.04
2019-01-03T12:51:23.670Z,102914.55
2019-01-03T12:53:44.953Z,102876.78
2019-01-03T12:55:46.361Z,102910.48
2019-01-03T12:58:07.679Z,102913.57
2019-01-03T13:00:29.030Z,102918.53
2019-01-03T13:02:43.585Z,102915.79
2019-01-03T13:05:26.704Z,102871.61
2019-01-03T13:07:49.923Z,102882.81
2019-01-03T13:10:11.242Z,102878.38
2019-01-03T13:12:33.067Z,102904.94
2019-01-03T13:14:54.367Z,102924.55
2019-01-03T13:17:15.704Z,102895.98
2019-01-03T13:19:37.092Z,102904.64
2019-01-03T13:21:58.409Z,102934.51
2019-01-03T13:24:19.674Z,102939.65
2019-01-03T13:26:40.987Z,102937.27
2019-01-03T13:29:02.357Z,102946.05
2019-01-03T13:31:23.655Z,102949.48
2019-01-03T13:33:45.181Z,102950.59
2019-01-03T13:36:07.466Z,102949.36
2019-01-03T13:38:28.753Z,102916.00
2019-01-03T13:40:50.063Z,102953.39
2019-01-03T13:42:51.532Z,102953.45
2019-01-03T13:45:12.872Z,102918.92
2019-01-03T13:47:34.148Z,102952.41
2019-01-03T13:49:35.553Z,102952.77
2019-01-03T13:51:57.142Z,102956.03
2019-01-03T13:54:18.453Z,102927.11
2019-01-03T13:56:39.737Z,102960.31
2019-01-03T13:58:41.204Z,102959.97
2019-01-03T14:01:02.534Z,102928.33
2019-01-03T14:03:24.182Z,102959.02
2019-01-03T14:05:45.470Z,102913.05
2019-01-03T14:08:06.757Z,102953.04
2019-01-03T14:10:28.200Z,102959.25
2019-01-03T14:12:49.485Z,102924.99
2019-01-03T14:15:11.075Z,102963.73
2019-01-03T14:17:32.418Z,102960.49
2019-01-03T14:19:33.816Z,102957.47
2019-01-03T14:21:55.098Z,102924.45
2019-01-03T14:24:09.756Z,102962.16
2019-01-03T14:26:31.037Z,102918.59
2019-01-03T14:28:32.423Z,102963.43
2019-01-03T14:30:53.759Z,102926.89
2019-01-03T14:33:15.025Z,102965.37
2019-01-03T14:35:36.318Z,102971.12
2019-01-03T14:37:57.644Z,102934.68
2019-01-03T14:40:18.912Z,102934.67
2019-01-03T14:42:40.197Z,102979.95
2019-01-03T14:47:28.903Z,102937.80
2019-01-03T14:49:50.229Z,102987.97
2019-01-03T14:52:11.594Z,102942.64
2019-01-03T14:54:33.225Z,102939.93
2019-01-03T14:56:54.523Z,102981.80
2019-01-03T14:59:15.865Z,102946.14
2019-01-03T15:01:17.558Z,102986.04
2019-01-03T15:03:38.825Z,102943.37
2019-01-03T15:06:00.108Z,102984.91
2019-01-03T15:08:21.644Z,102981.46
2019-01-03T15:10:36.134Z,102952.17
2019-01-03T15:12:57.651Z,102952.75
2019-01-03T15:15:18.985Z,102991.09
2019-01-03T15:17:40.296Z,102995.14
2019-01-03T15:20:01.595Z,102996.88
2019-01-03T15:22:22.864Z,103004.69
2019-01-03T15:24:37.711Z,103006.16
2019-01-03T15:26:59.078Z,103001.23
2019-01-03T15:29:20.356Z,102965.23
2019-01-03T15:31:41.639Z,103010.95
2019-01-03T15:34:02.993Z,102972.36
2019-01-03T15:36:24.267Z,102973.00
2019-01-03T15:38:45.839Z,102982.14
2019-01-03T15:41:07.080Z,102972.16
2019-01-03T15:43:28.357Z,103014.28
2019-01-03T15:45:49.694Z,103004.89
2019-01-03T15:47:51.099Z,103017.79
2019-01-03T15:50:12.393Z,103018.10
2019-01-03T15:52:33.770Z,103020.38
2019-01-03T15:54:35.177Z,103019.58
2019-01-03T15:56:56.531Z,103024.41
2019-01-03T15:59:11.201Z,102982.73
2019-01-03T16:01:32.478Z,103028.51
2019-01-03T16:03:53.775Z,103032.95
2019-01-03T16:06:15.101Z,103002.63
2019-01-03T16:08:36.378Z,103042.24
2019-01-03T16:10:57.718Z,103013.73
2019-01-03T16:13:18.986Z,102999.36
2019-01-03T16:15:40.266Z,103040.98
2019-01-03T16:18:02.535Z,103044.38
2019-01-03T16:20:23.866Z,103008.25
2019-01-03T16:22:45.145Z,103012.31
2019-01-03T16:25:06.535Z,103055.15
2019-01-03T16:27:27.873Z,103056.97
2019-01-03T16:29:49.145Z,103062.31
2019-01-03T16:32:10.417Z,103062.27
2019-01-03T16:34:31.910Z,103067.42
2019-01-03T16:36:53.187Z,103061.37
2019-01-03T16:39:14.449Z,103019.18
2019-01-03T16:41:35.798Z,103056.07
2019-01-03T16:43:57.091Z,103051.15
2019-01-03T16:46:18.371Z,103010.19
2019-01-03T16:48:39.700Z,103050.91
2019-01-03T16:51:00.975Z,103055.36
2019-01-03T16:53:22.245Z,103059.42
2019-01-03T16:55:37.605Z,103022.38
2019-01-03T16:57:58.899Z,103018.03
2019-01-03T17:00:20.177Z,103056.11
2019-01-03T17:02:41.639Z,103057.04
2019-01-03T17:05:25.702Z,103016.53
2019-01-03T17:07:47.005Z,103060.99
2019-01-03T17:10:30.078Z,103028.98
2019-01-03T17:12:51.424Z,103017.63
2019-01-03T17:15:12.699Z,103059.36
2019-01-03T17:17:34.047Z,103013.69
2019-01-03T17:19:55.493Z,103004.02
2019-01-03T17:22:16.751Z,103006.41
2019-01-03T17:24:38.024Z,103046.13
2019-01-03T17:26:59.361Z,102995.52
2019-01-03T17:29:20.644Z,103001.45
2019-01-03T17:31:42.152Z,103036.05
2019-01-03T17:34:03.402Z,102996.73
2019-01-03T17:36:24.831Z,103038.31
2019-01-03T17:38:46.241Z,102999.03
2019-01-03T17:41:07.636Z,103023.72
2019-01-03T17:43:28.973Z,103014.66
2019-01-03T17:45:50.239Z,103040.00
2019-01-03T17:48:11.536Z,103002.86
2019-01-03T17:50:52.761Z,103048.22
2019-01-03T17:53:33.894Z,103052.63
2019-01-03T17:55:35.278Z,103051.62
2019-01-03T17:57:51.084Z,103050.13
2019-01-03T18:00:57.182Z,103052.75
2019-01-03T18:03:38.416Z,103050.63
2019-01-03T18:06:19.553Z,103058.55
2019-01-03T18:09:00.784Z,103022.69
2019-01-03T18:11:22.053Z,103061.03
2019-01-03T18:13:43.317Z,103063.10
2019-01-03T18:16:04.670Z,103066.05
2019-01-03T18:18:06.077Z,103061.09
2019-01-03T18:20:27.329Z,103072.64
2019-01-03T18:22:48.655Z,103038.55
2019-01-03T18:25:29.821Z,103080.30
2019-01-03T18:28:11.053Z,103042.20
2019-01-03T18:30:32.353Z,103088.56
2019-01-03T18:32:53.641Z,103053.69
2019-01-03T18:35:14.977Z,103053.14
2019-01-03T18:37:36.259Z,103089.47
2019-01-03T18:39:57.498Z,103048.42
2019-01-03T18:42:18.836Z,103097.00
2019-01-03T18:44:59.988Z,103102.36
2019-01-03T18:47:21.490Z,103062.95
2019-01-03T18:49:42.787Z,103058.86
2019-01-03T18:52:04.079Z,103103.80
2019-01-03T18:54:05.548Z,103101.95
2019-01-03T18:56:26.817Z,103096.12
2019-01-03T18:58:41.787Z,103051.45
2019-01-03T19:01:03.141Z,103099.68
2019-01-03T19:03:24.395Z,103057.28
2019-01-03T19:05:45.650Z,103102.23
2019-01-03T19:08:07.007Z,103100.46
2019-01-03T19:10:28.481Z,103097.05
2019-01-03T19:12:49.863Z,103058.77
2019-01-03T19:15:11.254Z,103101.45
2019-01-03T19:17:52.455Z,103104.70
2019-01-03T19:20:14.409Z,103104.98
2019-01-03T19:22:35.821Z,103109.72
2019-01-03T19:24:57.081Z,103115.25
2019-01-03T19:27:18.437Z,103119.70
2019-01-03T19:29:39.716Z,103122.72
2019-01-03T19:32:01.001Z,103124.77
2019-01-03T19:34:22.331Z,103077.45
2019-01-03T19:36:43.646Z,103128.69
2019-01-03T19:39:05.202Z,103089.23
2019-01-03T19:41:26.431Z,103094.08
2019-01-03T19:43:47.708Z,103089.20
2019-01-03T19:46:29.159Z,103145.81
2019-01-03T19:49:10.334Z,103093.69
2019-01-03T19:51:31.664Z,103154.13
2019-01-03T19:53:52.961Z,103160.41
2019-01-03T19:56:14.284Z,103169.16
2019-01-03T19:58:35.542Z,103163.58
2019-01-03T20:01:10.640Z,103118.92
2019-01-03T20:03:51.955Z,103166.33
2019-01-03T20:06:33.223Z,103163.62
2019-01-03T20:09:14.442Z,103164.44
2019-01-03T20:11:55.782Z,103115.89
2019-01-03T20:14:37.120Z,103158.72
2019-01-03T20:17:18.274Z,103107.38
2019-01-03T20:19:39.615Z,103149.44
2019-01-03T20:22:00.998Z,103145.73
2019-01-03T20:24:22.251Z,103105.48
2019-01-03T20:26:43.722Z,103148.78
2019-01-03T20:29:05.081Z,103150.79
2019-01-03T20:31:26.390Z,103154.27
2019-01-03T20:34:07.656Z,103116.70
2019-01-03T20:36:09.056Z,103153.80
2019-01-03T20:38:30.387Z,103152.37
2019-01-03T20:41:11.617Z,103105.02
2019-01-03T20:43:52.760Z,103104.06
2019-01-03T20:46:14.274Z,103154.55
2019-01-03T20:48:55.413Z,103151.82
2019-01-03T20:51:16.764Z,103158.69
2019-01-03T20:53:39.281Z,103151.19
2019-01-03T20:56:21.185Z,103151.58
2019-01-03T20:58:42.459Z,103106.20
2019-01-03T21:01:23.830Z,103146.75
2019-01-03T21:03:58.929Z,103099.52
2019-01-03T21:06:40.155Z,103149.03
2019-01-03T21:09:21.440Z,103149.95
2019-01-03T21:11:42.853Z,103104.23
2019-01-03T21:13:44.315Z,103140.09
2019-01-03T21:16:05.599Z,103143.20
2019-01-03T21:18:26.874Z,103142.50
2019-01-03T21:20:48.191Z,103142.09
2019-01-03T21:23:09.663Z,103147.33
2019-01-03T21:25:30.960Z,103148.34
2019-01-03T21:27:52.263Z,103149.91
2019-01-03T21:33:37.172Z,103114.08
2019-01-03T21:36:18.371Z,103096.52
2019-01-03T21:38:59.533Z,103146.77
2019-01-03T21:41:20.966Z,103098.92
2019-01-03T21:43:42.254Z,103148.56
2019-01-03T21:46:03.531Z,103149.46
2019-01-03T21:48:24.843Z,103099.42
2019-01-03T21:50:46.135Z,103141.97
2019-01-03T21:53:07.558Z,103138.70
2019-01-03T21:55:28.881Z,103132.27
2019-01-03T21:58:10.082Z,103077.37
2019-01-03T22:00:31.427Z,103118.09
2019-01-03T22:02:52.715Z,103098.05
2019-01-03T22:05:08.855Z,103125.26
2019-01-03T22:07:30.131Z,103122.22
2019-01-03T22:09:51.399Z,103127.48
2019-01-03T22:12:12.747Z,103123.59
2019-01-03T22:14:53.889Z,103119.31
2019-01-03T22:17:35.103Z,103067.49
2019-01-03T22:19:56.387Z,103063.30
2019-01-03T22:22:17.654Z,103107.85
2019-01-03T22:24:39.176Z,103102.92
2019-01-03T22:27:00.456Z,103102.55
2019-01-03T22:29:21.733Z,103047.98
2019-01-03T22:31:23.195Z,103094.22
2019-01-03T22:33:44.477Z,103105.26
2019-01-03T22:36:05.764Z,103113.03
2019-01-03T22:38:47.196Z,103108.95
2019-01-03T22:41:08.554Z,103065.41
2019-01-03T22:43:29.821Z,103110.93
2019-01-03T22:45:51.151Z,103105.75
2019-01-03T22:48:12.423Z,103106.56
2019-01-03T22:50:33.757Z,103095.98
2019-01-03T22:52:55.097Z,103053.09
2019-01-03T22:55:16.509Z,103099.92
2019-01-03T22:57:37.800Z,103099.06
2019-01-03T22:59:59.121Z,103105.70
2019-01-03T23:02:00.722Z,103106.75
2019-01-03T23:04:21.999Z,103111.42
2019-01-03T23:06:37.333Z,103120.64
2019-01-03T23:08:58.623Z,103070.39
2019-01-03T23:11:19.884Z,103070.78
2019-01-03T23:13:41.213Z,103121.08
2019-01-03T23:16:02.463Z,103068.95
2019-01-03T23:18:31.241Z,103071.38
2019-01-03T23:21:06.868Z,103081.63
2019-01-03T23:23:48.025Z,103078.98
2019-01-03T23:26:29.205Z,103077.95
2019-01-03T23:28:50.480Z,103074.95
2019-01-03T23:31:31.682Z,103121.50
2019-01-03T23:34:12.899Z,103086.53
2019-01-03T23:36:54.053Z,103125.89
2019-01-03T23:39:35.317Z,103123.86
2019-01-03T23:41:56.620Z,103130.56
2019-01-03T23:44:17.885Z,103123.00
2019-01-03T23:46:59.121Z,103123.52
2019-01-03T23:49:40.377Z,103074.86
2019-01-03T23:52:01.941Z,103073.97
2019-01-03T23:54:23.275Z,103078.19
2019-01-03T23:56:24.677Z,103112.42
2019-01-03T23:58:46.012Z,103113.39
